createdAt,value
2017-09-25T00:00:56.673Z,16.00
2017-09-25T00:03:25.006Z,16.00
2017-09-25T00:05:53.286Z,16.00
2017-09-25T00:08:21.657Z,16.00
2017-09-25T00:10:49.943Z,15.90
2017-09-25T00:13:19.001Z,15.90
2017-09-25T00:15:48.121Z,16.00
2017-09-25T00:18:16.500Z,16.00
2017-09-25T00:20:44.781Z,16.00
2017-09-25T00:23:13.101Z,16.00
2017-09-25T00:25:41.434Z,16.00
2017-09-25T00:28:09.842Z,16.00
2017-09-25T00:30:39.006Z,15.70
2017-09-25T00:33:07.286Z,15.70
2017-09-25T00:35:35.671Z,15.60
2017-09-25T00:38:03.951Z,15.50
2017-09-25T00:40:32.275Z,15.50
2017-09-25T00:43:00.609Z,15.50
2017-09-25T00:45:30.392Z,15.40
2017-09-25T00:47:58.694Z,15.40
2017-09-25T00:50:26.979Z,15.30
2017-09-25T00:53:07.230Z,15.20
2017-09-25T00:55:47.322Z,15.10
2017-09-25T00:58:16.400Z,15.00
2017-09-25T01:00:56.574Z,15.00
2017-09-25T01:06:26.830Z,14.90
2017-09-25T01:08:55.154Z,14.90
2017-09-25T01:11:23.414Z,14.90
2017-09-25T01:13:51.712Z,14.90
2017-09-25T01:16:20.016Z,14.80
2017-09-25T01:18:49.057Z,14.70
2017-09-25T01:21:17.347Z,14.70
2017-09-25T01:23:45.642Z,14.60
2017-09-25T01:26:13.915Z,14.60
2017-09-25T01:28:42.212Z,14.60
2017-09-25T01:31:10.507Z,14.50
2017-09-25T01:33:38.868Z,14.50
2017-09-25T01:36:07.247Z,14.50
2017-09-25T01:38:36.300Z,14.40
2017-09-25T01:41:04.585Z,14.40
2017-09-25T01:43:32.861Z,14.30
2017-09-25T01:46:01.244Z,14.30
2017-09-25T01:48:29.517Z,14.20
2017-09-25T01:50:57.798Z,14.20
2017-09-25T01:53:26.073Z,14.20
2017-09-25T01:55:54.345Z,14.20
2017-09-25T01:58:22.747Z,14.20
2017-09-25T02:00:51.028Z,14.20
2017-09-25T02:03:19.316Z,14.20
2017-09-25T02:05:47.601Z,14.20
2017-09-25T02:08:16.675Z,14.30
2017-09-25T02:10:44.966Z,14.30
2017-09-25T02:13:13.245Z,14.30
2017-09-25T02:15:41.608Z,14.30
2017-09-25T02:18:09.900Z,14.30
2017-09-25T02:20:38.262Z,14.30
2017-09-25T02:23:06.581Z,14.30
2017-09-25T02:25:34.861Z,14.30
2017-09-25T02:28:03.140Z,14.30
2017-09-25T02:30:31.446Z,14.40
2017-09-25T02:32:59.765Z,14.40
2017-09-25T02:35:28.143Z,14.50
2017-09-25T02:37:56.512Z,14.50
2017-09-25T02:40:24.802Z,14.40
2017-09-25T02:42:53.108Z,14.40
2017-09-25T02:45:21.444Z,14.50
2017-09-25T02:47:49.827Z,14.50
2017-09-25T02:50:18.105Z,14.50
2017-09-25T02:52:46.366Z,14.30
2017-09-25T02:55:14.667Z,14.40
2017-09-25T02:57:43.021Z,14.40
2017-09-25T03:00:11.328Z,14.50
2017-09-25T03:02:39.620Z,14.50
2017-09-25T03:05:08.780Z,14.60
2017-09-25T03:07:37.177Z,14.50
2017-09-25T03:10:05.449Z,14.60
2017-09-25T03:12:33.761Z,14.60
2017-09-25T03:15:02.828Z,14.60
2017-09-25T03:17:32.613Z,14.60
2017-09-25T03:20:01.010Z,14.60
2017-09-25T03:22:29.296Z,14.60
2017-09-25T03:24:57.677Z,14.60
2017-09-25T03:27:25.940Z,14.60
2017-09-25T03:29:54.221Z,14.50
2017-09-25T03:32:22.608Z,14.40
2017-09-25T03:34:50.876Z,14.40
2017-09-25T03:37:19.268Z,14.40
2017-09-25T03:39:47.643Z,14.40
2017-09-25T03:42:16.432Z,14.40
2017-09-25T03:44:44.724Z,14.30
2017-09-25T03:47:12.999Z,14.30
2017-09-25T03:49:42.083Z,14.40
2017-09-25T03:52:10.374Z,14.40
2017-09-25T03:54:39.400Z,14.50
2017-09-25T03:57:07.718Z,14.40
2017-09-25T03:59:36.112Z,14.50
2017-09-25T04:02:04.430Z,14.50
2017-09-25T04:04:32.736Z,14.50
2017-09-25T04:07:01.046Z,14.50
2017-09-25T04:09:29.332Z,14.50
2017-09-25T04:11:57.600Z,14.50
2017-09-25T04:14:25.908Z,14.50
2017-09-25T04:16:54.228Z,14.40
2017-09-25T04:19:22.712Z,14.50
2017-09-25T04:21:50.993Z,14.50
2017-09-25T04:24:19.276Z,14.50
2017-09-25T04:26:47.659Z,14.50
2017-09-25T04:29:16.697Z,14.50
2017-09-25T04:31:44.971Z,14.50
2017-09-25T04:34:13.293Z,14.40
2017-09-25T04:36:41.568Z,14.40
2017-09-25T04:39:09.893Z,14.40
2017-09-25T04:41:38.956Z,14.40
2017-09-25T04:44:07.226Z,14.40
2017-09-25T04:46:35.525Z,14.40
2017-09-25T04:49:04.572Z,14.40
2017-09-25T04:51:32.895Z,14.40
2017-09-25T04:54:01.249Z,14.30
2017-09-25T04:56:29.632Z,14.20
2017-09-25T04:58:58.023Z,14.20
2017-09-25T05:01:26.406Z,14.20
2017-09-25T05:03:54.717Z,14.20
2017-09-25T05:06:23.050Z,14.20
2017-09-25T05:08:51.329Z,14.20
2017-09-25T05:11:19.625Z,14.10
2017-09-25T05:13:47.988Z,14.00
2017-09-25T05:16:16.315Z,14.10
2017-09-25T05:18:44.588Z,14.10
2017-09-25T05:21:12.868Z,14.10
2017-09-25T05:23:41.168Z,13.90
2017-09-25T05:26:09.454Z,13.90
2017-09-25T05:28:37.757Z,13.90
2017-09-25T05:31:06.065Z,13.90
2017-09-25T05:33:35.128Z,13.80
2017-09-25T05:36:03.400Z,13.80
2017-09-25T05:38:31.677Z,13.90
2017-09-25T05:41:00.276Z,14.00
2017-09-25T05:43:28.537Z,14.00
2017-09-25T05:45:56.861Z,14.10
2017-09-25T05:48:25.158Z,14.00
2017-09-25T05:50:53.429Z,14.10
2017-09-25T05:53:21.745Z,14.10
2017-09-25T05:55:51.532Z,14.10
2017-09-25T05:58:19.809Z,14.20
2017-09-25T06:00:48.136Z,14.30
2017-09-25T06:03:17.177Z,14.30
2017-09-25T06:05:45.500Z,14.30
2017-09-25T06:08:13.864Z,14.50
2017-09-25T06:10:42.142Z,14.50
2017-09-25T06:13:10.523Z,14.40
2017-09-25T06:15:38.779Z,14.40
2017-09-25T06:18:07.137Z,14.40
2017-09-25T06:20:35.413Z,14.50
2017-09-25T06:23:03.693Z,14.50
2017-09-25T06:25:31.981Z,14.60
2017-09-25T06:28:00.265Z,14.60
2017-09-25T06:30:28.581Z,14.60
2017-09-25T06:32:56.945Z,14.70
2017-09-25T06:35:25.223Z,14.70
2017-09-25T06:37:53.518Z,14.80
2017-09-25T06:40:22.589Z,14.90
2017-09-25T06:42:50.899Z,14.90
2017-09-25T06:45:19.971Z,14.80
2017-09-25T06:47:48.359Z,14.70
2017-09-25T06:50:16.735Z,14.80
2017-09-25T06:52:45.123Z,14.80
2017-09-25T06:55:13.433Z,14.80
2017-09-25T06:57:41.752Z,14.90
2017-09-25T07:00:10.032Z,15.00
2017-09-25T07:02:38.331Z,15.00
2017-09-25T07:05:06.596Z,15.20
2017-09-25T07:07:35.680Z,15.20
2017-09-25T07:10:03.963Z,15.20
2017-09-25T07:12:32.338Z,15.20
2017-09-25T07:15:00.621Z,15.30
2017-09-25T07:17:28.889Z,15.40
2017-09-25T07:19:57.993Z,15.50
2017-09-25T07:22:26.265Z,15.50
2017-09-25T07:24:54.658Z,15.40
2017-09-25T07:27:23.030Z,15.50
2017-09-25T07:29:51.319Z,15.60
2017-09-25T07:32:19.702Z,15.40
2017-09-25T07:34:48.749Z,15.40
2017-09-25T07:37:17.053Z,15.40
2017-09-25T07:39:45.432Z,15.40
2017-09-25T07:42:13.827Z,15.30
2017-09-25T07:44:42.094Z,15.30
2017-09-25T07:47:10.569Z,15.40
2017-09-25T07:49:38.865Z,15.40
2017-09-25T07:52:07.172Z,15.50
2017-09-25T07:54:36.321Z,15.40
2017-09-25T07:57:04.596Z,15.40
2017-09-25T07:59:32.900Z,15.40
2017-09-25T08:02:01.981Z,15.60
2017-09-25T08:04:30.241Z,15.50
2017-09-25T08:06:58.626Z,15.70
2017-09-25T08:09:26.902Z,15.70
2017-09-25T08:11:55.201Z,15.70
2017-09-25T08:14:23.561Z,15.80
2017-09-25T08:16:51.885Z,15.80
2017-09-25T08:19:20.941Z,15.90
2017-09-25T08:21:49.321Z,15.90
2017-09-25T08:24:17.612Z,15.90
2017-09-25T08:26:45.886Z,15.90
2017-09-25T08:29:14.264Z,15.80
2017-09-25T08:31:42.629Z,15.80
2017-09-25T08:34:11.021Z,15.80
2017-09-25T08:36:39.296Z,15.80
2017-09-25T08:39:07.571Z,15.80
2017-09-25T08:41:35.861Z,15.90
2017-09-25T08:44:04.900Z,15.90
2017-09-25T08:46:33.209Z,15.90
2017-09-25T08:49:01.484Z,15.90
2017-09-25T08:51:29.866Z,16.00
2017-09-25T08:53:58.144Z,16.10
2017-09-25T08:56:26.533Z,16.10
2017-09-25T08:58:54.812Z,16.10
2017-09-25T09:01:24.602Z,16.20
2017-09-25T09:03:52.903Z,16.20
2017-09-25T09:06:21.269Z,16.30
2017-09-25T09:08:49.675Z,16.20
2017-09-25T09:11:17.980Z,16.30
2017-09-25T09:13:46.256Z,16.30
2017-09-25T09:16:14.553Z,16.20
2017-09-25T09:18:42.833Z,16.20
2017-09-25T09:21:11.234Z,16.30
2017-09-25T09:23:39.507Z,16.30
2017-09-25T09:26:07.781Z,16.40
2017-09-25T09:28:36.071Z,16.50
2017-09-25T09:31:04.446Z,16.40
2017-09-25T09:33:32.762Z,16.50
2017-09-25T09:36:01.823Z,16.50
2017-09-25T09:38:30.098Z,16.50
2017-09-25T09:40:58.481Z,16.60
2017-09-25T09:43:26.740Z,16.40
2017-09-25T09:45:55.132Z,16.40
2017-09-25T09:48:23.399Z,16.20
2017-09-25T09:50:51.685Z,16.20
2017-09-25T09:53:20.067Z,16.20
2017-09-25T09:55:48.347Z,16.10
2017-09-25T09:58:16.664Z,16.10
2017-09-25T10:00:44.955Z,16.00
2017-09-25T10:03:13.270Z,16.00
2017-09-25T10:05:41.561Z,16.00
2017-09-25T10:08:09.851Z,16.00
2017-09-25T10:10:38.217Z,15.90
2017-09-25T10:13:06.589Z,15.70
2017-09-25T10:15:34.934Z,15.80
2017-09-25T10:18:03.189Z,15.70
2017-09-25T10:20:31.490Z,15.60
2017-09-25T10:22:59.777Z,15.50
2017-09-25T10:25:28.387Z,15.50
2017-09-25T10:27:56.816Z,15.50
2017-09-25T10:30:25.162Z,15.50
2017-09-25T10:32:53.472Z,15.50
2017-09-25T10:35:21.746Z,15.40
2017-09-25T10:37:50.089Z,15.40
2017-09-25T10:40:18.405Z,15.40
2017-09-25T10:42:46.749Z,15.30
2017-09-25T10:45:15.073Z,15.40
2017-09-25T10:47:43.386Z,15.30
2017-09-25T10:50:11.652Z,15.20
2017-09-25T10:52:40.042Z,15.20
2017-09-25T10:55:08.439Z,15.10
2017-09-25T10:57:36.757Z,15.10
2017-09-25T11:00:05.078Z,15.10
2017-09-25T11:02:33.474Z,15.20
2017-09-25T11:05:01.858Z,15.10
2017-09-25T11:07:30.138Z,15.10
2017-09-25T11:09:58.449Z,15.10
2017-09-25T11:12:26.721Z,15.10
2017-09-25T11:14:55.062Z,15.20
2017-09-25T11:17:23.336Z,15.40
2017-09-25T11:19:51.616Z,15.60
2017-09-25T11:22:19.942Z,15.70
2017-09-25T11:24:48.210Z,15.90
2017-09-25T11:27:16.550Z,16.00
2017-09-25T11:29:44.824Z,16.20
2017-09-25T11:32:13.163Z,16.20
2017-09-25T11:34:41.476Z,16.40
2017-09-25T11:37:09.778Z,16.60
2017-09-25T11:39:38.841Z,16.80
2017-09-25T11:42:07.121Z,16.80
2017-09-25T11:44:35.506Z,16.90
2017-09-25T11:47:03.793Z,17.10
2017-09-25T11:49:32.161Z,17.30
2017-09-25T11:52:00.439Z,17.50
2017-09-25T11:54:29.491Z,17.90
2017-09-25T11:56:57.793Z,17.90
2017-09-25T11:59:26.069Z,17.80
2017-09-25T12:01:54.481Z,17.60
2017-09-25T12:04:22.861Z,17.60
2017-09-25T12:06:51.166Z,17.50
2017-09-25T12:09:19.443Z,17.40
2017-09-25T12:11:47.736Z,17.20
2017-09-25T12:14:16.058Z,17.00
2017-09-25T12:16:44.339Z,16.90
2017-09-25T12:19:12.653Z,16.70
2017-09-25T12:21:41.681Z,16.40
2017-09-25T12:24:10.094Z,16.40
2017-09-25T12:26:38.473Z,16.30
2017-09-25T12:29:06.748Z,16.10
2017-09-25T12:31:35.043Z,15.90
2017-09-25T12:34:04.113Z,15.80
2017-09-25T12:36:32.407Z,15.80
2017-09-25T12:39:00.682Z,15.90
2017-09-25T12:41:29.778Z,16.30
2017-09-25T12:43:58.056Z,16.20
2017-09-25T12:46:26.332Z,16.20
2017-09-25T12:48:54.805Z,16.30
2017-09-25T12:51:23.100Z,16.20
2017-09-25T12:53:51.386Z,16.40
2017-09-25T12:56:20.451Z,16.70
2017-09-25T12:58:48.754Z,16.70
2017-09-25T13:01:17.927Z,16.90
2017-09-25T13:03:46.205Z,16.80
2017-09-25T13:06:14.570Z,17.00
2017-09-25T13:08:42.877Z,17.10
2017-09-25T13:11:11.249Z,17.10
2017-09-25T13:13:39.629Z,17.00
2017-09-25T13:16:07.993Z,17.00
2017-09-25T13:18:36.286Z,17.10
2017-09-25T13:21:04.649Z,17.10
2017-09-25T13:23:33.044Z,16.90
2017-09-25T13:26:01.414Z,16.90
2017-09-25T13:28:29.738Z,16.90
2017-09-25T13:30:58.098Z,16.90
2017-09-25T13:33:27.138Z,17.10
2017-09-25T13:35:55.443Z,17.10
2017-09-25T13:38:23.716Z,17.00
2017-09-25T13:40:52.028Z,16.90
2017-09-25T13:43:21.090Z,16.90
2017-09-25T13:45:49.393Z,16.90
2017-09-25T13:48:18.441Z,16.70
2017-09-25T13:50:46.720Z,16.70
2017-09-25T13:53:15.029Z,16.70
2017-09-25T13:55:43.375Z,16.60
2017-09-25T13:58:11.669Z,16.70
2017-09-25T14:03:13.594Z,16.80
2017-09-25T14:05:41.930Z,16.70
2017-09-25T14:08:10.255Z,16.80
2017-09-25T14:10:39.287Z,16.80
2017-09-25T14:13:07.565Z,16.80
2017-09-25T14:15:35.866Z,16.90
2017-09-25T14:18:04.156Z,16.90
2017-09-25T14:20:33.229Z,17.00
2017-09-25T14:23:01.489Z,17.00
2017-09-25T14:25:29.812Z,17.00
2017-09-25T14:27:58.861Z,17.10
2017-09-25T14:30:27.139Z,17.10
2017-09-25T14:32:55.437Z,17.20
2017-09-25T14:35:23.721Z,17.10
2017-09-25T14:37:52.006Z,17.20
2017-09-25T14:40:20.281Z,17.20
2017-09-25T14:42:48.605Z,17.20
2017-09-25T14:45:16.943Z,17.20
2017-09-25T14:47:45.217Z,17.20
2017-09-25T14:50:13.492Z,17.20
2017-09-25T14:52:41.762Z,17.20
2017-09-25T14:55:10.050Z,17.20
2017-09-25T14:57:38.324Z,17.10
2017-09-25T15:00:06.651Z,17.20
2017-09-25T15:02:34.917Z,17.10
2017-09-25T15:05:03.185Z,17.00
2017-09-25T15:07:31.476Z,17.00
2017-09-25T15:09:59.765Z,17.00
2017-09-25T15:12:28.050Z,16.80
2017-09-25T15:14:56.308Z,16.80
2017-09-25T15:17:24.624Z,16.70
2017-09-25T15:19:52.904Z,16.70
2017-09-25T15:22:21.195Z,16.60
2017-09-25T15:24:49.468Z,16.50
2017-09-25T15:27:17.729Z,16.50
2017-09-25T15:29:46.105Z,16.50
2017-09-25T15:32:14.361Z,16.40
2017-09-25T15:34:42.669Z,16.30
2017-09-25T15:37:10.945Z,16.20
2017-09-25T15:39:39.221Z,16.20
2017-09-25T15:42:07.500Z,16.10
2017-09-25T15:44:35.777Z,16.10
2017-09-25T15:47:04.062Z,16.10
2017-09-25T15:49:32.429Z,16.10
2017-09-25T15:52:00.819Z,16.10
2017-09-25T15:54:29.084Z,16.10
2017-09-25T15:56:57.358Z,16.10
2017-09-25T15:59:25.650Z,16.20
2017-09-25T16:01:53.918Z,16.10
2017-09-25T16:04:22.202Z,16.20
2017-09-25T16:06:50.571Z,16.30
2017-09-25T16:09:18.885Z,16.30
2017-09-25T16:11:47.945Z,16.20
2017-09-25T16:14:16.224Z,16.10
2017-09-25T16:16:44.509Z,16.10
2017-09-25T16:19:12.770Z,16.00
2017-09-25T16:21:41.073Z,16.00
2017-09-25T16:24:09.351Z,16.00
2017-09-25T16:26:37.648Z,15.80
2017-09-25T16:29:06.717Z,15.80
2017-09-25T16:31:35.080Z,15.80
2017-09-25T16:34:03.458Z,15.80
2017-09-25T16:36:31.753Z,15.80
2017-09-25T16:39:00.045Z,15.90
2017-09-25T16:41:29.108Z,15.80
2017-09-25T16:43:57.436Z,15.80
2017-09-25T16:46:26.481Z,15.70
2017-09-25T16:48:54.863Z,15.70
2017-09-25T16:51:23.252Z,15.60
2017-09-25T16:53:51.517Z,15.60
2017-09-25T16:56:19.930Z,15.50
2017-09-25T16:58:48.203Z,15.40
2017-09-25T17:01:16.561Z,15.30
2017-09-25T17:03:44.840Z,15.30
2017-09-25T17:06:14.965Z,15.10
2017-09-25T17:08:44.082Z,15.10
2017-09-25T17:11:13.152Z,15.00
2017-09-25T17:13:41.525Z,15.00
2017-09-25T17:16:09.800Z,14.90
2017-09-25T17:18:38.127Z,15.00
2017-09-25T17:21:06.417Z,14.90
2017-09-25T17:23:34.748Z,15.00
2017-09-25T17:26:03.056Z,14.90
2017-09-25T17:28:32.127Z,14.90
2017-09-25T17:31:00.500Z,14.90
2017-09-25T17:33:29.547Z,15.00
2017-09-25T17:35:57.861Z,15.00
2017-09-25T17:38:26.341Z,15.00
2017-09-25T17:40:54.613Z,15.00
2017-09-25T17:43:22.910Z,15.10
2017-09-25T17:45:51.192Z,15.00
2017-09-25T17:48:19.560Z,15.10
2017-09-25T17:50:47.838Z,15.10
2017-09-25T17:53:16.161Z,15.10
2017-09-25T17:55:44.437Z,15.10
2017-09-25T17:58:13.589Z,15.10
2017-09-25T18:00:41.883Z,15.10
2017-09-25T18:03:10.236Z,15.10
2017-09-25T18:05:38.617Z,15.20
2017-09-25T18:08:07.007Z,15.20
2017-09-25T18:10:35.330Z,15.10
2017-09-25T18:13:03.646Z,15.10
2017-09-25T18:15:31.918Z,15.10
2017-09-25T18:18:00.321Z,15.00
2017-09-25T18:20:28.688Z,15.10
2017-09-25T18:22:56.976Z,15.10
2017-09-25T18:25:25.349Z,15.10
2017-09-25T18:27:53.656Z,15.10
2017-09-25T18:30:22.717Z,15.10
2017-09-25T18:32:51.005Z,15.10
2017-09-25T18:35:19.372Z,15.10
2017-09-25T18:37:47.667Z,15.20
2017-09-25T18:40:16.043Z,15.20
2017-09-25T18:42:44.422Z,15.20
2017-09-25T18:45:12.739Z,15.20
2017-09-25T18:47:41.081Z,15.20
2017-09-25T18:50:09.349Z,15.20
2017-09-25T18:52:37.726Z,15.10
2017-09-25T18:55:05.998Z,15.20
2017-09-25T18:57:34.385Z,15.10
2017-09-25T19:00:02.661Z,15.20
2017-09-25T19:02:30.999Z,15.20
2017-09-25T19:04:59.317Z,15.20
2017-09-25T19:07:27.694Z,15.20
2017-09-25T19:09:55.980Z,15.20
2017-09-25T19:12:24.260Z,15.10
2017-09-25T19:14:52.624Z,15.00
2017-09-25T19:17:21.001Z,15.10
2017-09-25T19:19:49.312Z,15.00
2017-09-25T19:22:18.357Z,15.10
2017-09-25T19:24:46.630Z,15.10
2017-09-25T19:27:14.929Z,15.10
2017-09-25T19:29:43.216Z,15.20
2017-09-25T19:32:11.503Z,15.10
2017-09-25T19:34:39.769Z,15.10
2017-09-25T19:37:08.142Z,15.10
2017-09-25T19:39:36.426Z,15.20
2017-09-25T19:42:05.518Z,15.30
2017-09-25T19:44:33.814Z,15.20
2017-09-25T19:47:02.082Z,15.20
2017-09-25T19:49:42.177Z,15.30
2017-09-25T19:52:10.668Z,15.30
2017-09-25T19:54:38.985Z,15.20
2017-09-25T19:57:07.696Z,15.10
2017-09-25T19:59:36.424Z,15.10
2017-09-25T20:02:04.690Z,15.10
2017-09-25T20:04:32.970Z,15.00
2017-09-25T20:07:01.254Z,14.90
2017-09-25T20:09:29.533Z,15.00
2017-09-25T20:11:58.427Z,15.00
2017-09-25T20:17:27.691Z,14.90
2017-09-25T20:19:55.958Z,14.90
2017-09-25T20:22:24.246Z,14.90
2017-09-25T20:24:52.629Z,14.90
2017-09-25T20:27:22.482Z,14.90
2017-09-25T20:29:50.764Z,15.00
2017-09-25T20:32:19.072Z,14.80
2017-09-25T20:34:49.148Z,14.90
2017-09-25T20:37:18.261Z,14.90
2017-09-25T20:42:29.043Z,14.90
2017-09-25T20:44:57.333Z,14.90
2017-09-25T20:47:25.614Z,15.00
2017-09-25T20:49:54.008Z,15.00
2017-09-25T20:52:22.306Z,15.00
2017-09-25T20:54:51.367Z,15.00
2017-09-25T20:57:19.662Z,15.00
2017-09-25T20:59:47.946Z,15.00
2017-09-25T21:02:16.255Z,14.90
2017-09-25T21:04:44.599Z,14.80
2017-09-25T21:07:12.987Z,14.80
2017-09-25T21:09:41.257Z,14.70
2017-09-25T21:12:10.353Z,14.80
2017-09-25T21:14:38.712Z,14.70
2017-09-25T21:17:06.984Z,14.70
2017-09-25T21:19:35.294Z,14.80
2017-09-25T21:22:04.344Z,14.90
2017-09-25T21:24:32.645Z,14.80
2017-09-25T21:27:06.511Z,14.80
2017-09-25T21:29:34.849Z,14.80
2017-09-25T21:32:03.881Z,14.80
2017-09-25T21:34:32.197Z,14.80
2017-09-25T21:37:00.581Z,14.80
2017-09-25T21:39:28.954Z,14.90
2017-09-25T21:41:57.254Z,14.80
2017-09-25T21:44:26.322Z,14.90
2017-09-25T21:46:54.661Z,14.80
2017-09-25T21:49:22.977Z,14.80
2017-09-25T21:51:51.362Z,14.70
2017-09-25T21:54:19.737Z,14.60
2017-09-25T21:56:48.138Z,14.60
2017-09-25T21:59:16.429Z,14.60
2017-09-25T22:01:45.490Z,14.60
2017-09-25T22:04:13.871Z,14.50
2017-09-25T22:06:42.165Z,14.60
2017-09-25T22:09:11.260Z,14.60
2017-09-25T22:11:39.568Z,14.50
2017-09-25T22:14:07.836Z,14.50
2017-09-25T22:16:36.141Z,14.60
2017-09-25T22:19:04.416Z,14.60
2017-09-25T22:21:32.871Z,14.60
2017-09-25T22:24:01.922Z,14.60
2017-09-25T22:26:30.201Z,14.50
2017-09-25T22:28:58.598Z,14.60
2017-09-25T22:31:27.778Z,14.60
2017-09-25T22:33:56.055Z,14.50
2017-09-25T22:36:24.776Z,14.50
2017-09-25T22:38:53.859Z,14.50
2017-09-25T22:41:22.126Z,14.50
2017-09-25T22:43:52.201Z,14.50
2017-09-25T22:46:20.530Z,14.50
2017-09-25T22:48:48.799Z,14.40
2017-09-25T22:51:17.100Z,14.40
2017-09-25T22:53:46.142Z,14.40
2017-09-25T22:56:14.454Z,14.40
2017-09-25T22:58:43.493Z,14.40
2017-09-25T23:01:11.914Z,14.40
2017-09-25T23:03:40.990Z,14.40
2017-09-25T23:06:09.262Z,14.30
2017-09-25T23:08:37.557Z,14.20
2017-09-25T23:11:08.189Z,14.20
2017-09-25T23:13:36.566Z,14.20
2017-09-25T23:16:04.843Z,14.20
2017-09-25T23:18:33.149Z,14.20
2017-09-25T23:21:02.190Z,14.00
2017-09-25T23:23:30.460Z,14.00
2017-09-25T23:25:58.773Z,13.90
2017-09-25T23:28:27.048Z,14.00
2017-09-25T23:30:55.342Z,13.90
2017-09-25T23:33:23.612Z,13.90
2017-09-25T23:35:51.986Z,13.80
2017-09-25T23:38:20.281Z,13.90
2017-09-25T23:40:48.644Z,13.80
2017-09-25T23:43:17.721Z,13.80
2017-09-25T23:45:45.992Z,13.80
2017-09-25T23:48:14.287Z,13.80
2017-09-25T23:50:42.660Z,13.80
2017-09-25T23:53:11.132Z,13.80
2017-09-25T23:55:39.416Z,13.80
2017-09-25T23:58:07.720Z,13.80
